Latest Weather Observations for Moruya Airport

IDN60801

Issued at 12:52 am EDT Monday 26 October 2020 (issued every 10 minutes, with the page automatically refreshed every 10 minutes)

About weather observations | Map of weather stations | Latest weather observations for NSW | Other Formats
Station Details ID: 069148 Name: MORUYA AIRPORT AWS Lat: -35.90 Lon: 150.14 Height: 4.0 m
Data from the previous 72 hours. | See also: Recent months at Moruya Airport
Date/Time
EDT
Temp
°C
App
Temp
°C
Dew
Point
°C
Rel
Hum
%
Delta-T
°C
Wind Press
QNH
hPa
Press
MSL
hPa
Rain since
9am
mm
Dir  Spd
km/h
Gust
km/h
Spd
kts
Gust
kts
26/12:30am 15.3 10.3 9.7 69 2.9 ESE 26 35 14 19 1021.8 1021.8 7.0
26/12:00am 15.3 10.7 9.7 69 2.9 SE 24 35 13 19 1021.9 1021.9 7.0
 
Date/Time
EDT
Temp
°C
App
Temp
°C
Dew
Point
°C
Rel
Hum
%
Delta-T
°C
Wind Press
QNH
hPa
Press
MSL
hPa
Rain since
9am
mm
Dir  Spd
km/h
Gust
km/h
Spd
kts
Gust
kts
25/11:30pm 15.4 10.1 9.7 69 3.0 SE 28 37 15 20 1021.8 1021.8 7.0
25/11:00pm 15.3 10.1 10.1 71 2.7 SE 28 41 15 22 1021.7 1021.7 6.8
25/10:30pm 15.5 10.8 10.5 72 2.6 SE 26 37 14 20 1021.6 1021.6 6.8
25/10:00pm 15.2 10.9 10.6 74 2.4 SE 24 33 13 18 1021.5 1021.5 6.8
25/09:30pm 14.7 10.9 11.3 80 1.8 SE 22 41 12 22 1021.3 1021.3 6.8
25/09:00pm 13.9 10.9 12.1 89 1.0 SSE 19 30 10 16 1020.6 1020.6 6.8
25/08:30pm 12.6 11.1 11.8 95 0.4 W 11 13 6 7 1020.5 1020.5 6.8
25/08:04pm 12.5 10.6 11.7 95 0.4 SW 13 17 7 9 1019.8 1019.8 6.8
25/08:00pm 12.5 10.6 11.7 95 0.4 SW 13 17 7 9 1019.8 1019.8 6.6
25/07:54pm 12.4 10.8 11.6 95 0.4 SW 11 15 6 8 1019.8 1019.8 6.4
25/07:35pm 12.3 9.9 11.4 94 0.5 SSW 15 22 8 12 1019.8 1019.8 5.8
25/07:30pm 12.4 10.0 11.5 94 0.5 SSW 15 22 8 12 1019.9 1019.9 5.4
25/07:15pm 12.5 9.7 11.4 93 0.6 SW 17 24 9 13 1019.4 1019.4 2.0
25/07:00pm 12.4 9.2 11.3 93 0.6 SW 19 26 10 14 1018.8 1018.8 1.2
25/06:43pm 12.6 9.2 11.3 92 0.7 SSW 20 32 11 17 1018.6 1018.6 1.0
25/06:30pm 12.6 9.3 10.8 89 0.9 SSW 19 26 10 14 1018.4 1018.4 1.0
25/06:27pm 12.7 9.4 10.9 89 0.9 S 19 24 10 13 1018.5 1018.5 0.8
25/06:00pm 13.5 10.0 10.1 80 1.8 S 19 28 10 15 1018.2 1018.2 0.6
25/05:30pm 13.9 11.9 10.3 79 1.9 SSW 11 17 6 9 1017.8 1017.8 0.6
25/05:00pm 13.5 11.7 10.7 83 1.5 SSE 11 15 6 8 1017.5 1017.5 0.6
25/04:30pm 13.2 10.0 10.0 81 1.6 SSW 17 24 9 13 1017.2 1017.2 0.4
25/04:00pm 13.8 10.4 9.3 74 2.3 SSW 17 24 9 13 1016.9 1016.9 0.4
25/03:30pm 13.7 10.6 10.3 80 1.8 SSW 17 22 9 12 1016.8 1016.8 0.4
25/03:00pm 13.5 9.8 9.4 76 2.1 SSW 19 30 10 16 1016.8 1016.8 0.4
25/02:30pm 13.8 11.0 10.0 78 2.0 SSW 15 22 8 12 1016.9 1016.9 0.4
25/02:00pm 13.8 9.2 8.2 69 2.8 SSW 22 33 12 18 1017.0 1017.0 0.4
25/01:30pm 13.9 9.8 7.7 66 3.1 SSW 19 28 10 15 1016.9 1016.9 0.4
25/01:00pm 14.2 10.2 8.4 68 2.9 SSW 19 30 10 16 1016.6 1016.6 0.2
25/12:30pm 13.6 9.9 8.0 69 2.8 SSW 17 20 9 11 1016.5 1016.5 0.2
25/12:00pm 13.6 10.5 7.2 65 3.1 SSW 13 22 7 12 1016.7 1016.7 0.2
25/11:30am 13.9 9.9 6.7 62 3.5 SSW 17 28 9 15 1016.6 1016.6 0.0
25/11:00am 13.2 10.2 7.9 70 2.6 SSW 13 19 7 10 1016.6 1016.6 0.0
25/10:30am 12.4 9.3 7.3 71 2.5 SSW 13 19 7 10 1016.4 1016.4 0.0
25/10:00am 12.0 9.2 8.7 80 1.6 SW 13 20 7 11 1016.1 1016.1 0.0
25/09:30am 11.4 8.0 7.5 77 1.9 SW 15 20 8 11 1015.9 1015.8 0.0
25/09:00am 10.9 7.1 7.6 80 1.6 WSW 17 22 9 12 1015.6 1015.5 11.0
25/08:30am 10.8 7.1 7.9 82 1.4 SW 17 22 9 12 1015.2 1015.1 10.6
25/08:00am 11.1 7.9 8.5 84 1.3 SW 15 19 8 10 1014.8 1014.7 10.2
25/07:30am 11.1 8.1 7.6 79 1.7 SW 13 17 7 9 1014.2 1014.1 10.2
25/07:00am 11.1 7.1 6.5 73 2.2 SW 17 24 9 13 1013.6 1013.5 10.2
25/06:30am 11.1 6.3 5.6 69 2.5 SW 20 32 11 17 1013.0 1012.9 10.2
25/06:00am 11.3 6.6 5.2 66 2.8 SSW 19 30 10 16 1012.4 1012.3 10.2
25/05:30am 11.4 6.9 5.9 69 2.6 SSW 19 32 10 17 1011.7 1011.6 10.2
25/05:00am 11.5 8.4 8.7 83 1.4 SSW 15 22 8 12 1011.2 1011.1 10.2
25/04:30am 11.6 8.7 9.5 87 1.1 SSW 15 19 8 10 1010.7 1010.6 10.2
25/04:00am 12.2 9.2 9.4 83 1.4 SSW 15 24 8 13 1010.2 1010.1 10.2
25/03:30am 12.3 8.9 9.1 81 1.6 SSW 17 24 9 13 1009.8 1009.7 10.2
25/03:00am 12.3 9.4 9.7 84 1.3 SSW 15 22 8 12 1009.6 1009.5 10.2
25/02:30am 12.4 8.7 10.0 85 1.2 S 20 28 11 15 1009.3 1009.2 10.2
25/02:00am 12.3 8.8 10.2 87 1.1 S 19 26 10 14 1009.2 1009.1 10.2
25/01:30am 12.3 9.0 10.9 91 0.7 S 19 22 10 12 1009.1 1009.0 10.0
25/01:00am 12.6 9.8 11.2 91 0.7 S 17 20 9 11 1008.8 1008.7 10.0
25/12:30am 12.7 9.8 11.1 90 0.8 S 17 24 9 13 1008.6 1008.5 10.0
25/12:00am 12.8 9.6 11.4 91 0.7 SSE 19 24 10 13 1008.4 1008.3 10.0
 
Date/Time
EDT
Temp
°C
App
Temp
°C
Dew
Point
°C
Rel
Hum
%
Delta-T
°C
Wind Press
QNH
hPa
Press
MSL
hPa
Rain since
9am
mm
Dir  Spd
km/h
Gust
km/h
Spd
kts
Gust
kts
24/11:30pm 13.1 11.3 12.2 94 0.5 S 13 17 7 9 1008.3 1008.2 10.0
24/11:01pm 13.0 10.8 12.1 94 0.5 S 15 20 8 11 1008.2 1008.1 10.0
24/11:00pm 13.0 11.2 12.1 94 0.5 S 13 20 7 11 1008.2 1008.1 10.0
24/10:30pm 13.5 13.0 12.7 95 0.4 SSE 7 9 4 5 1007.8 1007.7 9.8
24/10:00pm 13.6 13.1 12.8 95 0.4 SSE 7 11 4 6 1007.7 1007.6 9.4
24/09:53pm 13.5 13.0 12.6 94 0.5 S 7 15 4 8 1007.6 1007.5 9.4
24/09:30pm 13.6 12.4 12.7 94 0.5 S 11 15 6 8 1007.1 1007.0 9.2
24/09:06pm 13.6 10.6 12.7 94 0.5 SSE 20 30 11 16 1006.6 1006.5 8.8
24/09:00pm 13.6 10.2 12.5 93 0.6 S 22 30 12 16 1006.5 1006.4 8.8
24/08:30pm 13.8 10.1 12.7 93 0.6 S 24 37 13 20 1006.0 1005.9 8.6
24/08:23pm 13.9 9.8 12.8 93 0.6 S 26 33 14 18 1005.8 1005.7 8.2
24/08:00pm 14.3 11.0 12.7 90 0.9 S 22 35 12 19 1005.1 1005.0 7.6
24/07:30pm 14.6 10.2 12.8 89 1.0 S 28 43 15 23 1004.4 1004.3 6.8
24/07:00pm 15.3 10.8 13.7 90 0.9 S 30 43 16 23 1004.0 1003.9 6.6
24/06:30pm 16.1 11.6 13.9 87 1.2 SSE 30 46 16 25 1003.6 1003.5 5.8
24/06:22pm 16.2 11.2 14.0 87 1.2 SSE 33 46 18 25 1003.4 1003.3 5.8
24/06:00pm 16.9 13.4 15.4 91 0.9 S 28 37 15 20 1003.2 1003.1 5.8
24/05:41pm 18.0 16.2 16.9 93 0.7 S 22 32 12 17 1002.6 1002.5 5.8
24/05:30pm 18.0 16.1 16.7 92 0.8 S 22 33 12 18 1002.2 1002.1 5.8
24/05:00pm 17.9 17.0 16.8 93 0.7 SE 17 24 9 13 1000.9 1000.8 5.6
24/04:41pm 18.1 18.3 16.8 92 0.8 SE 11 17 6 9 1001.5 1001.4 5.6
24/04:40pm 18.0 18.2 16.7 92 0.8 SE 11 19 6 10 1001.5 1001.4 5.6
24/04:30pm 18.2 17.3 16.9 92 0.8 SE 17 24 9 13 1001.5 1001.4 5.6
24/04:19pm 18.5 17.2 16.7 89 1.1 S 19 26 10 14 1001.1 1001.0 3.4
24/04:05pm 19.5 18.1 16.5 83 1.8 SSE 19 28 10 15 1001.0 1000.9 1.0
24/04:00pm 19.7 18.7 16.7 83 1.8 SE 17 28 9 15 1000.6 1000.5 1.0
24/03:30pm 20.0 20.5 17.4 85 1.6 SE 11 17 6 9 1000.3 1000.2 1.0
24/03:00pm 19.8 18.8 16.6 82 1.9 ENE 17 22 9 12 999.8 999.7 1.0
24/02:30pm 22.8 24.6 18.8 78 2.5 NNE 7 11 4 6 999.9 999.8 1.0
24/02:00pm 22.6 24.1 18.8 79 2.4 NNE 9 11 5 6 1000.1 1000.0 1.0
24/01:30pm 21.7 24.0 19.4 87 1.5 NNW 6 9 3 5 1000.5 1000.4 1.0
24/01:00pm 21.2 22.0 18.2 83 1.9 N 11 15 6 8 1000.9 1000.8 0.8
24/12:30pm 21.7 23.2 18.9 84 1.8 N 9 15 5 8 1001.2 1001.1 0.6
24/12:00pm 21.2 22.6 17.8 81 2.1 NNW 7 15 4 8 1001.3 1001.2 0.0
24/11:30am 22.3 23.0 17.0 72 3.2 NE 9 13 5 7 1001.3 1001.2 0.0
24/11:00am 24.0 25.5 17.7 68 3.9 NNE 6 11 3 6 1001.6 1001.5 0.0
24/10:30am 20.6 20.2 16.2 76 2.6 NNE 13 15 7 8 1002.0 1001.9 0.0
24/10:00am 21.2 21.3 16.6 75 2.8 NE 11 13 6 7 1001.9 1001.8 0.0
24/09:30am 20.9 20.9 16.3 75 2.8 NE 11 15 6 8 1002.3 1002.2 0.0
24/09:00am 20.8 21.0 16.8 78 2.4 NE 11 15 6 8 1002.3 1002.2 0.6
24/08:30am 20.2 21.0 16.4 79 2.3 NNE 7 11 4 6 1002.6 1002.5 0.6
24/08:00am 19.2 19.0 16.8 86 1.5 NNE 13 17 7 9 1002.7 1002.6 0.6
24/07:30am 18.3 18.8 16.6 90 1.0 NE 9 13 5 7 1002.7 1002.6 0.6
24/07:00am 18.3 18.5 16.8 91 0.9 NNE 11 15 6 8 1002.2 1002.1 0.6
24/06:30am 17.8 18.3 16.5 92 0.8 NNE 9 13 5 7 1002.1 1002.0 0.6
24/06:00am 17.4 18.4 16.4 94 0.6 NNW 6 9 3 5 1002.1 1002.0 0.6
24/05:30am 17.4 18.4 16.4 94 0.6 NNW 6 9 3 5 1002.7 1002.6 0.6
24/05:00am 17.6 18.7 16.5 93 0.7 NNW 6 9 3 5 1002.9 1002.8 0.6
24/04:30am 17.9 18.9 16.8 93 0.7 N 7 9 4 5 1003.3 1003.2 0.6
24/04:00am 17.9 19.1 16.8 93 0.7 N 6 7 3 4 1003.5 1003.4 0.6
24/03:30am 17.8 18.4 16.8 94 0.6 N 9 15 5 8 1003.7 1003.6 0.6
24/03:03am 17.9 17.8 16.9 94 0.6 NNE 13 17 7 9 1003.5 1003.4 0.2
24/03:00am 17.9 18.1 16.8 93 0.7 NNE 11 13 6 7 1003.6 1003.5 0.2
24/02:43am 17.9 17.7 16.8 93 0.7 NNE 13 17 7 9 1004.5 1004.4 0.2
24/02:35am 17.9 17.7 16.8 93 0.7 NNE 13 15 7 8 1004.7 1004.6 0.2
24/02:30am 17.9 17.7 16.8 93 0.7 NNE 13 17 7 9 1004.8 1004.7 0.2
24/02:17am 17.9 18.8 16.6 92 0.8 NNE 7 13 4 7 1005.0 1004.9 0.0
24/02:00am 18.0 19.5 16.7 92 0.8 NNW 4 6 2 3 1005.2 1005.1 0.0
24/01:30am 18.0 18.6 16.7 92 0.8 W 9 13 5 7 1005.9 1005.8 0.0
24/01:00am 18.0 19.1 16.5 91 0.9 NW 6 7 3 4 1006.0 1005.9 0.0
24/12:30am 18.2 19.3 16.7 91 0.9 WNW 6 9 3 5 1006.1 1006.0 0.0
24/12:00am 18.4 20.6 16.6 89 1.1 CALM 0 0 0 0 1006.4 1006.3 0.0
 
Date/Time
EDT
Temp
°C
App
Temp
°C
Dew
Point
°C
Rel
Hum
%
Delta-T
°C
Wind Press
QNH
hPa
Press
MSL
hPa
Rain since
9am
mm
Dir  Spd
km/h
Gust
km/h
Spd
kts
Gust
kts
23/11:30pm 18.7 20.1 16.5 87 1.3 WSW 4 7 2 4 1006.6 1006.5 0.0
23/11:00pm 19.1 20.0 16.5 85 1.6 S 7 13 4 7 1007.0 1006.9 0.0
23/10:30pm 19.1 19.1 16.3 84 1.7 SW 11 20 6 11 1008.2 1008.1 0.0
23/10:00pm 18.5 19.5 16.3 87 1.3 SSW 6 9 3 5 1007.8 1007.7 0.0
23/09:30pm 18.4 19.4 16.4 88 1.2 S 6 9 3 5 1007.8 1007.7 0.0
23/09:00pm 18.4 19.9 15.8 85 1.5 NE 2 7 1 4 1007.8 1007.7 0.0
23/08:30pm 18.7 19.2 15.6 82 1.8 NNE 7 11 4 6 1007.7 1007.6 0.0
23/08:00pm 19.2 18.7 15.9 81 2.0 NE 13 15 7 8 1007.4 1007.3 0.0
23/07:30pm 19.6 19.4 15.7 78 2.3 NE 11 17 6 9 1007.3 1007.2 0.0
23/07:00pm 19.9 18.5 15.5 76 2.6 NNE 17 24 9 13 1007.0 1006.9 0.0
23/06:30pm 20.6 17.4 15.2 71 3.2 NNE 26 33 14 18 1006.5 1006.4 0.0
23/06:00pm 21.1 17.2 15.6 71 3.3 NNE 30 35 16 19 1006.3 1006.2 0.0
23/05:30pm 21.2 16.4 15.7 71 3.3 NNE 35 44 19 24 1006.2 1006.1 0.0
23/05:00pm 21.2 16.8 15.7 71 3.3 NNE 33 43 18 23 1006.2 1006.1 0.0
23/04:30pm 22.3 18.1 15.6 66 4.0 NNE 32 39 17 21 1006.6 1006.5 0.0
23/04:00pm 22.7 17.8 15.3 63 4.4 NE 35 43 19 23 1006.7 1006.6 0.0
23/03:30pm 23.1 18.8 15.4 62 4.6 NE 32 41 17 22 1006.9 1006.8 0.0
23/03:00pm 23.6 19.4 15.6 61 4.8 NNE 32 39 17 21 1007.3 1007.2 0.0
23/02:30pm 24.1 20.2 16.4 62 4.7 NE 32 44 17 24 1007.7 1007.6 0.0
23/02:00pm 22.8 19.7 16.6 68 3.8 NNE 28 39 15 21 1008.4 1008.3 0.0
23/01:30pm 21.8 18.6 16.3 71 3.3 NE 28 39 15 21 1008.9 1008.8 0.0
23/01:00pm 22.2 19.9 16.7 71 3.4 NE 24 33 13 18 1009.5 1009.4 0.0
23/12:30pm 22.5 19.9 16.8 70 3.5 NE 26 35 14 19 1010.1 1010.0 0.0
23/12:00pm 21.3 18.9 16.5 74 2.9 NE 24 32 13 17 1010.5 1010.4 0.0
23/11:30am 20.4 17.9 16.2 77 2.5 NE 24 32 13 17 1010.9 1010.8 0.0
23/11:00am 20.1 18.3 15.9 77 2.5 NE 20 28 11 15 1011.2 1011.1 0.0
23/10:30am 20.0 18.2 16.0 78 2.4 NE 20 26 11 14 1011.7 1011.6 0.0
23/10:00am 20.8 20.3 15.8 73 3.0 NE 13 19 7 10 1012.1 1012.0 0.0
23/09:30am 19.6 18.5 15.3 76 2.5 N 15 20 8 11 1012.5 1012.4 0.0
23/09:00am 17.7 16.9 15.1 85 1.5 NNW 13 19 7 10 1012.7 1012.6 0.0
23/08:49am 17.3 16.8 15.8 91 0.9 NNW 13 19 7 10 1012.8 1012.7 0.0
23/08:30am 16.0 16.1 15.4 96 0.3 NNW 9 13 5 7 1013.0 1012.9 0.0
23/08:03am 15.5 15.4 15.0 97 0.3 N 9 15 5 8 1013.0 1012.9 0.0
23/08:00am 15.5 15.4 15.0 97 0.3 NNW 9 15 5 8 1013.1 1013.0 0.0
23/07:30am 15.1 14.1 14.6 97 0.3 NW 13 17 7 9 1013.2 1013.1 0.0
23/07:00am 15.1 14.1 14.6 97 0.3 NNW 13 17 7 9 1013.0 1012.9 0.0
23/06:30am 14.9 14.2 14.3 96 0.3 NNW 11 15 6 8 1012.9 1012.8 0.0
23/06:13am 14.7 13.9 14.1 96 0.3 NNW 11 15 6 8 1012.9 1012.8 0.0
23/06:00am 14.5 13.7 13.9 96 0.3 NNW 11 15 6 8 1012.6 1012.5 0.0
23/05:53am 14.4 13.5 13.8 96 0.3 NNW 11 15 6 8 1012.4 1012.3 0.0
23/05:48am 14.5 14.0 13.9 96 0.3 NNW 9 15 5 8 1012.4 1012.3 0.0
23/05:30am 14.3 14.1 13.7 96 0.3 NW 7 11 4 6 1012.6 1012.5 0.0
23/05:12am 14.5 14.4 13.9 96 0.3 WNW 7 11 4 6 1012.9 1012.8 0.0
23/05:11am 14.5 14.0 13.9 96 0.3 WNW 9 11 5 6 1012.9 1012.8 0.0
23/05:00am 14.6 14.5 14.0 96 0.3 WNW 7 11 4 6 1012.8 1012.7 0.0
23/04:42am 14.5 14.4 13.9 96 0.3 WNW 7 9 4 5 1012.9 1012.8 0.0
23/04:30am 13.7 14.2 12.9 95 0.4 WNW 2 7 1 4 1012.7 1012.6 0.0
23/04:00am 13.5 14.3 12.7 95 0.4 CALM 0 0 0 0 1012.8 1012.7 0.0
23/03:40am 13.4 14.2 12.6 95 0.4 CALM 0 0 0 0 1012.9 1012.8 0.0
23/03:30am 13.4 14.2 12.6 95 0.4 CALM 0 0 0 0 1012.8 1012.7 0.0
23/03:07am 13.5 14.3 12.6 94 0.5 CALM 0 0 0 0 1012.9 1012.8 0.0
23/03:00am 13.5 14.3 12.6 94 0.5 CALM 0 0 0 0 1013.0 1012.9 0.0
23/02:48am 13.7 14.6 12.8 94 0.5 CALM 0 0 0 0 1013.0 1012.9 0.0
23/02:40am 13.7 14.6 12.8 94 0.5 CALM 0 6 0 3 1013.1 1013.0 0.0
23/02:30am 13.3 13.6 12.2 93 0.6 WNW 2 7 1 4 1013.3 1013.2 0.0
23/02:00am 14.1 15.0 13.0 93 0.6 CALM 0 0 0 0 1013.7 1013.6 0.0
23/01:30am 14.3 15.3 13.2 93 0.6 CALM 0 0 0 0 1014.2 1014.1 0.0
23/01:09am 15.0 16.2 13.9 93 0.6 CALM 0 0 0 0 1014.7 1014.6 0.0
23/01:00am 14.9 16.0 13.6 92 0.7 CALM 0 0 0 0 1014.9 1014.8 0.0

Other formats

Comma delimited format used in spreadsheet applications
http://www.bom.gov.au/fwo/IDN60801/IDN60801.95937.axf

JavaScript Object Notation format (JSON) in row-major order
http://www.bom.gov.au/fwo/IDN60801/IDN60801.95937.json

Data quality

Most of these data are generated automatically and are frequently updated. Quality checks on data are not normally performed. It is possible for incorrect values to appear. Refer to information at About Latest Weather Observations and please check the disclaimer before using these data.